sensor_id;sensor_type;location;lat;lon;timestamp;temperature;humidity
6518;DHT22;3292;48.944;9.240;2023-01-10T00:02:08;5.10;99.90
6518;DHT22;3292;48.944;9.240;2023-01-10T00:04:34;5.20;99.90
6518;DHT22;3292;48.944;9.240;2023-01-10T00:07:02;5.20;99.90
6518;DHT22;3292;48.944;9.240;2023-01-10T00:09:28;5.10;99.90
6518;DHT22;3292;48.944;9.240;2023-01-10T00:11:55;5.10;99.90
6518;DHT22;3292;48.944;9.240;2023-01-10T00:14:41;5.10;99.90
6518;DHT22;3292;48.944;9.240;2023-01-10T00:17:08;5.10;99.90
6518;DHT22;3292;48.944;9.240;2023-01-10T00:19:35;5.10;99.90
6518;DHT22;3292;48.944;9.240;2023-01-10T00:22:01;5.10;99.90
6518;DHT22;3292;48.944;9.240;2023-01-10T00:24:41;5.10;99.90
6518;DHT22;3292;48.944;9.240;2023-01-10T00:27:08;5.10;99.90
6518;DHT22;3292;48.944;9.240;2023-01-10T00:29:37;5.20;99.90
6518;DHT22;3292;48.944;9.240;2023-01-10T00:32:05;5.10;99.90
6518;DHT22;3292;48.944;9.240;2023-01-10T00:34:32;5.10;99.90
6518;DHT22;3292;48.944;9.240;2023-01-10T00:36:59;5.00;99.90
6518;DHT22;3292;48.944;9.240;2023-01-10T00:39:26;5.10;99.90
6518;DHT22;3292;48.944;9.240;2023-01-10T00:41:53;5.00;99.90
6518;DHT22;3292;48.944;9.240;2023-01-10T00:44:37;5.00;99.90
6518;DHT22;3292;48.944;9.240;2023-01-10T00:47:05;5.00;99.90
6518;DHT22;3292;48.944;9.240;2023-01-10T00:49:32;5.00;99.90
6518;DHT22;3292;48.944;9.240;2023-01-10T00:51:59;5.00;99.90
6518;DHT22;3292;48.944;9.240;2023-01-10T00:54:26;5.00;99.90
6518;DHT22;3292;48.944;9.240;2023-01-10T00:56:53;5.10;99.90
6518;DHT22;3292;48.944;9.240;2023-01-10T00:59:20;5.10;99.90
6518;DHT22;3292;48.944;9.240;2023-01-10T01:01:46;5.10;99.90
6518;DHT22;3292;48.944;9.240;2023-01-10T01:04:15;5.10;99.90
6518;DHT22;3292;48.944;9.240;2023-01-10T01:06:42;5.10;99.90
6518;DHT22;3292;48.944;9.240;2023-01-10T01:09:09;5.10;99.90
6518;DHT22;3292;48.944;9.240;2023-01-10T01:11:35;5.10;99.90
6518;DHT22;3292;48.944;9.240;2023-01-10T01:14:02;5.00;99.90
6518;DHT22;3292;48.944;9.240;2023-01-10T01:16:29;5.00;99.90
6518;DHT22;3292;48.944;9.240;2023-01-10T01:18:56;4.90;99.90
6518;DHT22;3292;48.944;9.240;2023-01-10T01:21:24;4.90;99.90
6518;DHT22;3292;48.944;9.240;2023-01-10T01:23:52;4.90;99.90
6518;DHT22;3292;48.944;9.240;2023-01-10T01:26:21;4.90;99.90
6518;DHT22;3292;48.944;9.240;2023-01-10T01:28:48;4.90;99.90
6518;DHT22;3292;48.944;9.240;2023-01-10T01:31:15;4.90;99.90
6518;DHT22;3292;48.944;9.240;2023-01-10T01:33:42;4.90;99.90
6518;DHT22;3292;48.944;9.240;2023-01-10T01:36:09;4.90;99.90
6518;DHT22;3292;48.944;9.240;2023-01-10T01:38:39;4.90;99.90
6518;DHT22;3292;48.944;9.240;2023-01-10T01:41:06;5.00;99.90
6518;DHT22;3292;48.944;9.240;2023-01-10T01:44:02;5.00;99.90
6518;DHT22;3292;48.944;9.240;2023-01-10T01:46:31;5.10;99.90
6518;DHT22;3292;48.944;9.240;2023-01-10T01:48:59;5.10;99.90
6518;DHT22;3292;48.944;9.240;2023-01-10T01:51:28;5.10;99.90
6518;DHT22;3292;48.944;9.240;2023-01-10T01:53:59;5.20;99.90
6518;DHT22;3292;48.944;9.240;2023-01-10T01:56:30;5.20;99.90
6518;DHT22;3292;48.944;9.240;2023-01-10T01:59:04;5.20;99.90
6518;DHT22;3292;48.944;9.240;2023-01-10T02:01:33;5.20;99.90
6518;DHT22;3292;48.944;9.240;2023-01-10T02:04:07;5.20;99.90
6518;DHT22;3292;48.944;9.240;2023-01-10T02:06:35;5.20;99.90
6518;DHT22;3292;48.944;9.240;2023-01-10T02:09:09;5.20;99.90
6518;DHT22;3292;48.944;9.240;2023-01-10T02:11:38;5.20;99.90
6518;DHT22;3292;48.944;9.240;2023-01-10T02:14:05;5.10;99.90
6518;DHT22;3292;48.944;9.240;2023-01-10T02:16:32;5.10;99.90
6518;DHT22;3292;48.944;9.240;2023-01-10T02:18:59;5.10;99.90
6518;DHT22;3292;48.944;9.240;2023-01-10T02:21:39;5.10;99.90
6518;DHT22;3292;48.944;9.240;2023-01-10T02:24:26;5.00;99.90
6518;DHT22;3292;48.944;9.240;2023-01-10T02:27:19;4.90;99.90
6518;DHT22;3292;48.944;9.240;2023-01-10T02:30:31;4.90;99.90
6518;DHT22;3292;48.944;9.240;2023-01-10T02:33:08;4.90;99.90
6518;DHT22;3292;48.944;9.240;2023-01-10T02:35:59;4.90;99.90
6518;DHT22;3292;48.944;9.240;2023-01-10T02:38:36;4.90;99.90
6518;DHT22;3292;48.944;9.240;2023-01-10T02:41:13;4.90;99.90
6518;DHT22;3292;48.944;9.240;2023-01-10T02:43:46;4.90;99.90
6518;DHT22;3292;48.944;9.240;2023-01-10T02:46:16;4.90;99.90
6518;DHT22;3292;48.944;9.240;2023-01-10T02:48:50;4.90;99.90
6518;DHT22;3292;48.944;9.240;2023-01-10T02:51:19;4.90;99.90
6518;DHT22;3292;48.944;9.240;2023-01-10T02:53:49;4.90;99.90
6518;DHT22;3292;48.944;9.240;2023-01-10T02:56:35;4.80;99.90
6518;DHT22;3292;48.944;9.240;2023-01-10T02:59:46;4.80;99.90
6518;DHT22;3292;48.944;9.240;2023-01-10T03:02:23;4.80;99.90
6518;DHT22;3292;48.944;9.240;2023-01-10T03:05:03;4.90;99.90
6518;DHT22;3292;48.944;9.240;2023-01-10T03:07:39;4.90;99.90
6518;DHT22;3292;48.944;9.240;2023-01-10T03:10:13;4.80;99.90
6518;DHT22;3292;48.944;9.240;2023-01-10T03:12:43;4.80;99.90
6518;DHT22;3292;48.944;9.240;2023-01-10T03:15:15;4.80;99.90
6518;DHT22;3292;48.944;9.240;2023-01-10T03:17:46;4.80;99.90
6518;DHT22;3292;48.944;9.240;2023-01-10T03:20:19;4.80;99.90
6518;DHT22;3292;48.944;9.240;2023-01-10T03:22:46;4.80;99.90
6518;DHT22;3292;48.944;9.240;2023-01-10T03:25:16;4.70;99.90
6518;DHT22;3292;48.944;9.240;2023-01-10T03:27:50;4.80;99.90
6518;DHT22;3292;48.944;9.240;2023-01-10T03:30:26;4.70;99.90
6518;DHT22;3292;48.944;9.240;2023-01-10T03:32:56;4.70;99.90
6518;DHT22;3292;48.944;9.240;2023-01-10T03:35:32;4.70;99.90
6518;DHT22;3292;48.944;9.240;2023-01-10T03:38:04;4.70;99.90
6518;DHT22;3292;48.944;9.240;2023-01-10T03:40:39;4.70;99.90
6518;DHT22;3292;48.944;9.240;2023-01-10T03:43:12;4.60;99.90
6518;DHT22;3292;48.944;9.240;2023-01-10T03:46:03;4.60;99.90
6518;DHT22;3292;48.944;9.240;2023-01-10T03:48:34;4.60;99.90
6518;DHT22;3292;48.944;9.240;2023-01-10T03:51:05;4.60;99.90
6518;DHT22;3292;48.944;9.240;2023-01-10T03:53:33;4.60;99.90
6518;DHT22;3292;48.944;9.240;2023-01-10T03:56:04;4.60;99.90
6518;DHT22;3292;48.944;9.240;2023-01-10T03:58:33;4.60;99.90
6518;DHT22;3292;48.944;9.240;2023-01-10T04:01:02;4.50;99.90
6518;DHT22;3292;48.944;9.240;2023-01-10T04:03:29;4.50;99.90
6518;DHT22;3292;48.944;9.240;2023-01-10T04:05:57;4.50;99.90
6518;DHT22;3292;48.944;9.240;2023-01-10T04:08:27;4.50;99.90
6518;DHT22;3292;48.944;9.240;2023-01-10T04:10:55;4.50;99.90
6518;DHT22;3292;48.944;9.240;2023-01-10T04:13:26;4.50;99.90
6518;DHT22;3292;48.944;9.240;2023-01-10T04:15:59;4.50;99.90
6518;DHT22;3292;48.944;9.240;2023-01-10T04:18:33;4.40;99.90
6518;DHT22;3292;48.944;9.240;2023-01-10T04:21:02;4.40;99.90
6518;DHT22;3292;48.944;9.240;2023-01-10T04:23:31;4.40;99.90
6518;DHT22;3292;48.944;9.240;2023-01-10T04:26:14;4.30;99.90
6518;DHT22;3292;48.944;9.240;2023-01-10T04:28:41;4.30;99.90
6518;DHT22;3292;48.944;9.240;2023-01-10T04:31:09;4.40;99.90
6518;DHT22;3292;48.944;9.240;2023-01-10T04:33:39;4.30;99.90
6518;DHT22;3292;48.944;9.240;2023-01-10T04:36:09;4.30;99.90
6518;DHT22;3292;48.944;9.240;2023-01-10T04:40:09;4.30;99.90
6518;DHT22;3292;48.944;9.240;2023-01-10T04:42:37;4.20;99.90
6518;DHT22;3292;48.944;9.240;2023-01-10T04:45:06;4.20;99.90
6518;DHT22;3292;48.944;9.240;2023-01-10T04:47:39;4.20;99.90
6518;DHT22;3292;48.944;9.240;2023-01-10T04:50:08;4.20;99.90
6518;DHT22;3292;48.944;9.240;2023-01-10T04:52:35;4.20;99.90
6518;DHT22;3292;48.944;9.240;2023-01-10T04:55:03;4.20;99.90
6518;DHT22;3292;48.944;9.240;2023-01-10T04:57:36;4.30;99.90
6518;DHT22;3292;48.944;9.240;2023-01-10T05:00:05;4.30;99.90
6518;DHT22;3292;48.944;9.240;2023-01-10T05:02:34;4.30;99.90
6518;DHT22;3292;48.944;9.240;2023-01-10T05:05:08;4.40;99.90
6518;DHT22;3292;48.944;9.240;2023-01-10T05:07:39;4.40;99.90
6518;DHT22;3292;48.944;9.240;2023-01-10T05:10:09;4.40;99.90
6518;DHT22;3292;48.944;9.240;2023-01-10T05:12:39;4.40;99.90
6518;DHT22;3292;48.944;9.240;2023-01-10T05:15:07;4.40;99.90
6518;DHT22;3292;48.944;9.240;2023-01-10T05:17:40;4.50;99.90
6518;DHT22;3292;48.944;9.240;2023-01-10T05:20:10;4.50;99.90
6518;DHT22;3292;48.944;9.240;2023-01-10T05:22:42;4.50;99.90
6518;DHT22;3292;48.944;9.240;2023-01-10T05:25:10;4.40;99.90
6518;DHT22;3292;48.944;9.240;2023-01-10T05:27:41;4.50;99.90
6518;DHT22;3292;48.944;9.240;2023-01-10T05:30:11;4.50;99.90
6518;DHT22;3292;48.944;9.240;2023-01-10T05:32:39;4.50;99.90
6518;DHT22;3292;48.944;9.240;2023-01-10T05:35:10;4.50;99.90
6518;DHT22;3292;48.944;9.240;2023-01-10T05:37:51;4.50;99.90
6518;DHT22;3292;48.944;9.240;2023-01-10T05:40:22;4.60;99.90
6518;DHT22;3292;48.944;9.240;2023-01-10T05:42:51;4.60;99.90
6518;DHT22;3292;48.944;9.240;2023-01-10T05:45:33;4.60;99.90
6518;DHT22;3292;48.944;9.240;2023-01-10T05:48:05;4.60;99.90
6518;DHT22;3292;48.944;9.240;2023-01-10T05:50:37;4.60;99.90
6518;DHT22;3292;48.944;9.240;2023-01-10T05:53:06;4.60;99.90
6518;DHT22;3292;48.944;9.240;2023-01-10T05:55:34;4.60;99.90
6518;DHT22;3292;48.944;9.240;2023-01-10T05:58:03;4.70;99.90
6518;DHT22;3292;48.944;9.240;2023-01-10T06:00:36;4.70;99.90
6518;DHT22;3292;48.944;9.240;2023-01-10T06:03:08;4.70;99.90
6518;DHT22;3292;48.944;9.240;2023-01-10T06:05:35;4.70;99.90
6518;DHT22;3292;48.944;9.240;2023-01-10T06:08:05;4.70;99.90
6518;DHT22;3292;48.944;9.240;2023-01-10T06:10:33;4.70;99.90
6518;DHT22;3292;48.944;9.240;2023-01-10T06:13:00;4.70;99.90
6518;DHT22;3292;48.944;9.240;2023-01-10T06:15:43;4.60;99.90
6518;DHT22;3292;48.944;9.240;2023-01-10T06:18:11;4.60;99.90
6518;DHT22;3292;48.944;9.240;2023-01-10T06:20:42;4.60;99.90
6518;DHT22;3292;48.944;9.240;2023-01-10T06:23:10;4.60;99.90
6518;DHT22;3292;48.944;9.240;2023-01-10T06:25:38;4.70;99.90
6518;DHT22;3292;48.944;9.240;2023-01-10T06:28:06;4.60;99.90
6518;DHT22;3292;48.944;9.240;2023-01-10T06:30:45;4.60;99.90
6518;DHT22;3292;48.944;9.240;2023-01-10T06:33:15;4.60;99.90
6518;DHT22;3292;48.944;9.240;2023-01-10T06:35:43;4.60;99.90
6518;DHT22;3292;48.944;9.240;2023-01-10T06:38:11;4.60;99.90
6518;DHT22;3292;48.944;9.240;2023-01-10T06:40:42;4.60;99.90
6518;DHT22;3292;48.944;9.240;2023-01-10T06:43:11;4.50;99.90
6518;DHT22;3292;48.944;9.240;2023-01-10T06:45:39;4.50;99.90
6518;DHT22;3292;48.944;9.240;2023-01-10T06:48:08;4.50;99.90
6518;DHT22;3292;48.944;9.240;2023-01-10T06:50:39;4.50;99.90
6518;DHT22;3292;48.944;9.240;2023-01-10T06:53:08;4.60;99.90
6518;DHT22;3292;48.944;9.240;2023-01-10T06:55:36;4.60;99.90
6518;DHT22;3292;48.944;9.240;2023-01-10T06:58:04;4.60;99.90
6518;DHT22;3292;48.944;9.240;2023-01-10T07:00:31;4.50;99.90
6518;DHT22;3292;48.944;9.240;2023-01-10T07:03:00;4.50;99.90
6518;DHT22;3292;48.944;9.240;2023-01-10T07:05:29;4.50;99.90
6518;DHT22;3292;48.944;9.240;2023-01-10T07:08:04;4.50;99.90
6518;DHT22;3292;48.944;9.240;2023-01-10T07:10:40;4.50;99.90
6518;DHT22;3292;48.944;9.240;2023-01-10T07:13:11;4.40;99.90
6518;DHT22;3292;48.944;9.240;2023-01-10T07:15:38;4.50;99.90
6518;DHT22;3292;48.944;9.240;2023-01-10T07:18:05;4.50;99.90
6518;DHT22;3292;48.944;9.240;2023-01-10T07:20:38;4.50;99.90
6518;DHT22;3292;48.944;9.240;2023-01-10T07:23:06;4.50;99.90
6518;DHT22;3292;48.944;9.240;2023-01-10T07:25:35;4.60;99.90
6518;DHT22;3292;48.944;9.240;2023-01-10T07:28:06;4.60;99.90
6518;DHT22;3292;48.944;9.240;2023-01-10T07:30:34;4.60;99.90
6518;DHT22;3292;48.944;9.240;2023-01-10T07:33:05;4.60;99.90
6518;DHT22;3292;48.944;9.240;2023-01-10T07:35:38;4.60;99.90
6518;DHT22;3292;48.944;9.240;2023-01-10T07:38:06;4.60;99.90
6518;DHT22;3292;48.944;9.240;2023-01-10T07:40:34;4.70;99.90
6518;DHT22;3292;48.944;9.240;2023-01-10T07:43:02;4.70;99.90
6518;DHT22;3292;48.944;9.240;2023-01-10T07:45:39;4.70;99.90
6518;DHT22;3292;48.944;9.240;2023-01-10T07:48:25;4.70;99.90
6518;DHT22;3292;48.944;9.240;2023-01-10T07:50:57;4.70;99.90
6518;DHT22;3292;48.944;9.240;2023-01-10T07:53:29;4.70;99.90
6518;DHT22;3292;48.944;9.240;2023-01-10T07:55:58;4.70;99.90
6518;DHT22;3292;48.944;9.240;2023-01-10T07:58:29;4.70;99.90
6518;DHT22;3292;48.944;9.240;2023-01-10T08:01:00;4.70;99.90
6518;DHT22;3292;48.944;9.240;2023-01-10T08:03:29;4.70;99.90
6518;DHT22;3292;48.944;9.240;2023-01-10T08:06:09;4.70;99.90
6518;DHT22;3292;48.944;9.240;2023-01-10T08:08:38;4.80;99.90
6518;DHT22;3292;48.944;9.240;2023-01-10T08:11:06;4.80;99.90
6518;DHT22;3292;48.944;9.240;2023-01-10T08:13:33;4.80;99.90
6518;DHT22;3292;48.944;9.240;2023-01-10T08:16:04;4.80;99.90
6518;DHT22;3292;48.944;9.240;2023-01-10T08:18:33;4.80;99.90
6518;DHT22;3292;48.944;9.240;2023-01-10T08:21:04;4.80;99.90
6518;DHT22;3292;48.944;9.240;2023-01-10T08:23:34;4.90;99.90
6518;DHT22;3292;48.944;9.240;2023-01-10T08:26:01;4.80;99.90
6518;DHT22;3292;48.944;9.240;2023-01-10T08:28:30;4.90;99.90
6518;DHT22;3292;48.944;9.240;2023-01-10T08:31:04;4.90;99.90
6518;DHT22;3292;48.944;9.240;2023-01-10T08:33:38;4.90;99.90
6518;DHT22;3292;48.944;9.240;2023-01-10T08:36:16;4.90;99.90
6518;DHT22;3292;48.944;9.240;2023-01-10T08:38:43;5.00;99.90
6518;DHT22;3292;48.944;9.240;2023-01-10T08:41:25;5.00;99.90
6518;DHT22;3292;48.944;9.240;2023-01-10T08:43:53;5.00;99.90
6518;DHT22;3292;48.944;9.240;2023-01-10T08:46:20;5.00;99.90
6518;DHT22;3292;48.944;9.240;2023-01-10T08:48:50;5.00;99.90
6518;DHT22;3292;48.944;9.240;2023-01-10T08:51:21;5.10;99.90
6518;DHT22;3292;48.944;9.240;2023-01-10T08:53:55;5.10;99.90
6518;DHT22;3292;48.944;9.240;2023-01-10T08:56:26;5.10;99.90
6518;DHT22;3292;48.944;9.240;2023-01-10T08:59:00;5.20;99.90
6518;DHT22;3292;48.944;9.240;2023-01-10T09:01:28;5.20;99.90
6518;DHT22;3292;48.944;9.240;2023-01-10T09:03:59;5.20;99.90
6518;DHT22;3292;48.944;9.240;2023-01-10T09:06:31;5.20;99.90
6518;DHT22;3292;48.944;9.240;2023-01-10T09:09:00;5.20;99.90
6518;DHT22;3292;48.944;9.240;2023-01-10T09:11:36;5.20;99.90
6518;DHT22;3292;48.944;9.240;2023-01-10T09:14:06;5.20;99.90
6518;DHT22;3292;48.944;9.240;2023-01-10T09:16:34;5.20;99.90
6518;DHT22;3292;48.944;9.240;2023-01-10T09:19:04;5.20;99.90
6518;DHT22;3292;48.944;9.240;2023-01-10T09:21:34;5.30;99.90
6518;DHT22;3292;48.944;9.240;2023-01-10T09:24:03;5.30;99.90
6518;DHT22;3292;48.944;9.240;2023-01-10T09:26:31;5.30;99.90
6518;DHT22;3292;48.944;9.240;2023-01-10T09:29:00;5.30;99.90
6518;DHT22;3292;48.944;9.240;2023-01-10T09:31:28;5.40;99.90
6518;DHT22;3292;48.944;9.240;2023-01-10T09:33:56;5.30;99.90
6518;DHT22;3292;48.944;9.240;2023-01-10T09:39:19;5.40;99.90
6518;DHT22;3292;48.944;9.240;2023-01-10T09:41:57;5.40;99.90
6518;DHT22;3292;48.944;9.240;2023-01-10T09:44:48;5.40;99.90
6518;DHT22;3292;48.944;9.240;2023-01-10T09:47:20;5.40;99.90
6518;DHT22;3292;48.944;9.240;2023-01-10T09:50:04;5.40;99.90
6518;DHT22;3292;48.944;9.240;2023-01-10T09:52:38;5.40;99.90
6518;DHT22;3292;48.944;9.240;2023-01-10T09:55:22;5.40;99.90
6518;DHT22;3292;48.944;9.240;2023-01-10T09:57:56;5.40;99.90
6518;DHT22;3292;48.944;9.240;2023-01-10T10:00:37;5.40;99.90
6518;DHT22;3292;48.944;9.240;2023-01-10T10:03:24;5.50;99.90
6518;DHT22;3292;48.944;9.240;2023-01-10T10:05:53;5.50;99.90
6518;DHT22;3292;48.944;9.240;2023-01-10T10:08:36;5.50;99.90
6518;DHT22;3292;48.944;9.240;2023-01-10T10:11:37;5.60;99.90
6518;DHT22;3292;48.944;9.240;2023-01-10T10:14:30;5.60;99.90
6518;DHT22;3292;48.944;9.240;2023-01-10T10:17:12;5.70;99.90
6518;DHT22;3292;48.944;9.240;2023-01-10T10:19:55;5.70;99.90
6518;DHT22;3292;48.944;9.240;2023-01-10T10:22:34;5.70;99.90
6518;DHT22;3292;48.944;9.240;2023-01-10T10:25:11;5.70;99.90
6518;DHT22;3292;48.944;9.240;2023-01-10T10:27:54;5.70;99.90
6518;DHT22;3292;48.944;9.240;2023-01-10T10:30:39;5.80;99.90
6518;DHT22;3292;48.944;9.240;2023-01-10T10:33:33;5.80;99.90
6518;DHT22;3292;48.944;9.240;2023-01-10T10:36:07;5.80;99.90
6518;DHT22;3292;48.944;9.240;2023-01-10T10:38:42;5.80;99.90
6518;DHT22;3292;48.944;9.240;2023-01-10T10:41:14;5.80;99.90
6518;DHT22;3292;48.944;9.240;2023-01-10T10:43:45;5.80;99.90
6518;DHT22;3292;48.944;9.240;2023-01-10T10:46:20;5.80;99.90
6518;DHT22;3292;48.944;9.240;2023-01-10T10:49:02;5.90;99.90
6518;DHT22;3292;48.944;9.240;2023-01-10T10:51:42;5.90;99.90
6518;DHT22;3292;48.944;9.240;2023-01-10T10:54:13;5.90;99.90
6518;DHT22;3292;48.944;9.240;2023-01-10T10:56:48;6.00;99.90
6518;DHT22;3292;48.944;9.240;2023-01-10T10:59:21;6.10;99.90
6518;DHT22;3292;48.944;9.240;2023-01-10T11:01:49;6.20;99.90
6518;DHT22;3292;48.944;9.240;2023-01-10T11:04:21;6.20;99.90
6518;DHT22;3292;48.944;9.240;2023-01-10T11:06:53;6.20;99.90
6518;DHT22;3292;48.944;9.240;2023-01-10T11:09:23;6.20;99.90
6518;DHT22;3292;48.944;9.240;2023-01-10T11:11:54;6.30;99.90
6518;DHT22;3292;48.944;9.240;2023-01-10T11:14:43;6.30;99.90
6518;DHT22;3292;48.944;9.240;2023-01-10T11:17:23;6.30;99.90
6518;DHT22;3292;48.944;9.240;2023-01-10T11:19:56;6.40;99.90
6518;DHT22;3292;48.944;9.240;2023-01-10T11:22:27;6.50;99.90
6518;DHT22;3292;48.944;9.240;2023-01-10T11:24:57;6.70;99.90
6518;DHT22;3292;48.944;9.240;2023-01-10T11:27:31;6.70;99.90
6518;DHT22;3292;48.944;9.240;2023-01-10T11:30:02;6.70;99.90
6518;DHT22;3292;48.944;9.240;2023-01-10T11:32:36;6.80;99.90
6518;DHT22;3292;48.944;9.240;2023-01-10T11:35:07;6.80;99.90
6518;DHT22;3292;48.944;9.240;2023-01-10T11:37:36;6.80;99.90
6518;DHT22;3292;48.944;9.240;2023-01-10T11:40:15;6.80;99.90
6518;DHT22;3292;48.944;9.240;2023-01-10T11:42:43;6.90;99.90
6518;DHT22;3292;48.944;9.240;2023-01-10T11:45:21;6.90;99.90
6518;DHT22;3292;48.944;9.240;2023-01-10T11:47:55;6.90;99.90
6518;DHT22;3292;48.944;9.240;2023-01-10T11:50:26;6.90;99.90
6518;DHT22;3292;48.944;9.240;2023-01-10T11:52:55;6.90;99.90
6518;DHT22;3292;48.944;9.240;2023-01-10T11:55:25;6.90;99.90
6518;DHT22;3292;48.944;9.240;2023-01-10T11:57:58;6.90;99.90
6518;DHT22;3292;48.944;9.240;2023-01-10T12:00:44;7.00;99.90
6518;DHT22;3292;48.944;9.240;2023-01-10T12:03:22;7.00;99.90
6518;DHT22;3292;48.944;9.240;2023-01-10T12:05:55;7.00;99.90
6518;DHT22;3292;48.944;9.240;2023-01-10T12:08:43;6.90;99.90
6518;DHT22;3292;48.944;9.240;2023-01-10T12:11:23;6.90;99.90
6518;DHT22;3292;48.944;9.240;2023-01-10T12:13:56;6.90;99.90
6518;DHT22;3292;48.944;9.240;2023-01-10T12:16:26;7.00;99.90
6518;DHT22;3292;48.944;9.240;2023-01-10T12:18:55;7.10;99.90
6518;DHT22;3292;48.944;9.240;2023-01-10T12:21:33;7.20;99.90
6518;DHT22;3292;48.944;9.240;2023-01-10T12:24:04;7.30;99.90
6518;DHT22;3292;48.944;9.240;2023-01-10T12:26:36;7.30;99.90
6518;DHT22;3292;48.944;9.240;2023-01-10T12:29:10;7.20;99.90
6518;DHT22;3292;48.944;9.240;2023-01-10T12:31:43;7.20;99.90
6518;DHT22;3292;48.944;9.240;2023-01-10T12:34:15;7.20;99.90
6518;DHT22;3292;48.944;9.240;2023-01-10T12:36:58;7.20;99.90
6518;DHT22;3292;48.944;9.240;2023-01-10T12:39:32;7.10;99.90
6518;DHT22;3292;48.944;9.240;2023-01-10T12:42:16;7.10;99.90
6518;DHT22;3292;48.944;9.240;2023-01-10T12:45:07;7.00;99.90
6518;DHT22;3292;48.944;9.240;2023-01-10T12:47:51;7.10;99.90
6518;DHT22;3292;48.944;9.240;2023-01-10T12:50:23;7.20;99.90
6518;DHT22;3292;48.944;9.240;2023-01-10T12:52:58;7.20;99.90
6518;DHT22;3292;48.944;9.240;2023-01-10T12:55:36;7.20;99.90
6518;DHT22;3292;48.944;9.240;2023-01-10T12:58:15;7.20;99.90
6518;DHT22;3292;48.944;9.240;2023-01-10T13:00:54;7.20;99.90
6518;DHT22;3292;48.944;9.240;2023-01-10T13:03:31;7.30;99.90
6518;DHT22;3292;48.944;9.240;2023-01-10T13:06:05;7.30;99.90
6518;DHT22;3292;48.944;9.240;2023-01-10T13:08:34;7.30;99.90
6518;DHT22;3292;48.944;9.240;2023-01-10T13:11:09;7.30;99.90
6518;DHT22;3292;48.944;9.240;2023-01-10T13:13:46;7.30;99.90
6518;DHT22;3292;48.944;9.240;2023-01-10T13:16:35;7.30;99.90
6518;DHT22;3292;48.944;9.240;2023-01-10T13:19:25;7.20;99.90
6518;DHT22;3292;48.944;9.240;2023-01-10T13:22:18;7.30;99.90
6518;DHT22;3292;48.944;9.240;2023-01-10T13:24:57;7.20;99.90
6518;DHT22;3292;48.944;9.240;2023-01-10T13:27:29;7.10;99.90
6518;DHT22;3292;48.944;9.240;2023-01-10T13:29:58;7.10;99.90
6518;DHT22;3292;48.944;9.240;2023-01-10T13:32:30;7.10;99.90
6518;DHT22;3292;48.944;9.240;2023-01-10T13:35:11;7.10;99.90
6518;DHT22;3292;48.944;9.240;2023-01-10T13:37:52;7.10;99.90
6518;DHT22;3292;48.944;9.240;2023-01-10T13:40:23;7.00;99.90
6518;DHT22;3292;48.944;9.240;2023-01-10T13:46:38;6.90;99.90
6518;DHT22;3292;48.944;9.240;2023-01-10T13:52:35;7.00;99.90
6518;DHT22;3292;48.944;9.240;2023-01-10T13:55:31;7.10;99.90
6518;DHT22;3292;48.944;9.240;2023-01-10T13:58:04;7.10;99.90
6518;DHT22;3292;48.944;9.240;2023-01-10T14:01:23;7.20;99.90
6518;DHT22;3292;48.944;9.240;2023-01-10T14:04:19;7.20;99.90
6518;DHT22;3292;48.944;9.240;2023-01-10T14:06:57;7.20;99.90
6518;DHT22;3292;48.944;9.240;2023-01-10T14:09:37;7.30;99.90
6518;DHT22;3292;48.944;9.240;2023-01-10T14:12:15;7.30;99.90
6518;DHT22;3292;48.944;9.240;2023-01-10T14:14:52;7.20;99.90
6518;DHT22;3292;48.944;9.240;2023-01-10T14:17:24;7.30;99.90
6518;DHT22;3292;48.944;9.240;2023-01-10T14:20:03;7.30;99.90
6518;DHT22;3292;48.944;9.240;2023-01-10T14:22:35;7.30;99.90
6518;DHT22;3292;48.944;9.240;2023-01-10T14:25:07;7.30;99.90
6518;DHT22;3292;48.944;9.240;2023-01-10T14:27:44;7.30;99.90
6518;DHT22;3292;48.944;9.240;2023-01-10T14:30:18;7.30;99.90
6518;DHT22;3292;48.944;9.240;2023-01-10T14:32:48;7.30;99.90
6518;DHT22;3292;48.944;9.240;2023-01-10T14:35:18;7.40;99.90
6518;DHT22;3292;48.944;9.240;2023-01-10T14:37:50;7.30;99.90
6518;DHT22;3292;48.944;9.240;2023-01-10T14:40:24;7.30;99.90
6518;DHT22;3292;48.944;9.240;2023-01-10T14:42:52;7.30;99.90
6518;DHT22;3292;48.944;9.240;2023-01-10T14:45:30;7.20;99.90
6518;DHT22;3292;48.944;9.240;2023-01-10T14:48:17;7.20;99.90
6518;DHT22;3292;48.944;9.240;2023-01-10T14:50:45;7.20;99.90
6518;DHT22;3292;48.944;9.240;2023-01-10T14:53:24;7.10;99.90
6518;DHT22;3292;48.944;9.240;2023-01-10T14:55:52;7.10;99.90
6518;DHT22;3292;48.944;9.240;2023-01-10T14:58:19;7.00;99.90
6518;DHT22;3292;48.944;9.240;2023-01-10T15:00:48;6.90;99.90
6518;DHT22;3292;48.944;9.240;2023-01-10T15:03:18;6.90;99.90
6518;DHT22;3292;48.944;9.240;2023-01-10T15:05:46;6.90;99.90
6518;DHT22;3292;48.944;9.240;2023-01-10T15:08:16;6.80;99.90
6518;DHT22;3292;48.944;9.240;2023-01-10T15:10:46;6.80;99.90
6518;DHT22;3292;48.944;9.240;2023-01-10T15:13:19;6.80;99.90
6518;DHT22;3292;48.944;9.240;2023-01-10T15:15:49;6.80;99.90
6518;DHT22;3292;48.944;9.240;2023-01-10T15:18:35;6.70;99.90
6518;DHT22;3292;48.944;9.240;2023-01-10T15:21:03;6.70;99.90
6518;DHT22;3292;48.944;9.240;2023-01-10T15:23:34;6.70;99.90
6518;DHT22;3292;48.944;9.240;2023-01-10T15:26:04;6.60;99.90
6518;DHT22;3292;48.944;9.240;2023-01-10T15:28:33;6.60;99.90
6518;DHT22;3292;48.944;9.240;2023-01-10T15:31:03;6.60;99.90
6518;DHT22;3292;48.944;9.240;2023-01-10T15:33:31;6.50;99.90
6518;DHT22;3292;48.944;9.240;2023-01-10T15:36:03;6.50;99.90
6518;DHT22;3292;48.944;9.240;2023-01-10T15:38:31;6.50;99.90
6518;DHT22;3292;48.944;9.240;2023-01-10T15:41:02;6.40;99.90
6518;DHT22;3292;48.944;9.240;2023-01-10T15:43:30;6.40;99.90
6518;DHT22;3292;48.944;9.240;2023-01-10T15:46:00;6.40;99.90
6518;DHT22;3292;48.944;9.240;2023-01-10T15:48:29;6.40;99.90
6518;DHT22;3292;48.944;9.240;2023-01-10T15:50:58;6.30;99.90
6518;DHT22;3292;48.944;9.240;2023-01-10T15:53:51;6.20;99.90
6518;DHT22;3292;48.944;9.240;2023-01-10T15:56:21;6.20;99.90
6518;DHT22;3292;48.944;9.240;2023-01-10T15:58:50;6.10;99.90
6518;DHT22;3292;48.944;9.240;2023-01-10T16:01:19;6.10;99.90
6518;DHT22;3292;48.944;9.240;2023-01-10T16:03:48;6.00;99.90
6518;DHT22;3292;48.944;9.240;2023-01-10T16:06:24;6.00;99.90
6518;DHT22;3292;48.944;9.240;2023-01-10T16:08:53;6.00;99.90
6518;DHT22;3292;48.944;9.240;2023-01-10T16:11:24;6.00;99.90
6518;DHT22;3292;48.944;9.240;2023-01-10T16:14:09;6.00;99.90
6518;DHT22;3292;48.944;9.240;2023-01-10T16:16:37;5.90;99.90
6518;DHT22;3292;48.944;9.240;2023-01-10T16:19:04;5.90;99.90
6518;DHT22;3292;48.944;9.240;2023-01-10T16:21:35;5.80;99.90
6518;DHT22;3292;48.944;9.240;2023-01-10T16:24:03;5.70;99.90
6518;DHT22;3292;48.944;9.240;2023-01-10T16:26:31;5.70;99.90
6518;DHT22;3292;48.944;9.240;2023-01-10T16:28:58;5.60;99.90
6518;DHT22;3292;48.944;9.240;2023-01-10T16:31:25;5.70;99.90
6518;DHT22;3292;48.944;9.240;2023-01-10T16:33:53;5.60;99.90
6518;DHT22;3292;48.944;9.240;2023-01-10T16:36:20;5.60;99.90
6518;DHT22;3292;48.944;9.240;2023-01-10T16:38:47;5.60;99.90
6518;DHT22;3292;48.944;9.240;2023-01-10T16:41:14;5.60;99.90
6518;DHT22;3292;48.944;9.240;2023-01-10T16:43:58;5.50;99.90
6518;DHT22;3292;48.944;9.240;2023-01-10T16:46:26;5.50;99.90
6518;DHT22;3292;48.944;9.240;2023-01-10T16:48:55;5.50;99.90
6518;DHT22;3292;48.944;9.240;2023-01-10T16:51:24;5.60;99.90
6518;DHT22;3292;48.944;9.240;2023-01-10T16:53:53;5.60;99.90
6518;DHT22;3292;48.944;9.240;2023-01-10T16:56:22;5.60;99.90
6518;DHT22;3292;48.944;9.240;2023-01-10T16:58:51;5.60;99.90
6518;DHT22;3292;48.944;9.240;2023-01-10T17:01:23;5.60;99.90
6518;DHT22;3292;48.944;9.240;2023-01-10T17:03:56;5.60;99.90
6518;DHT22;3292;48.944;9.240;2023-01-10T17:06:24;5.60;99.90